sensor_id;sensor_type;location;lat;lon;timestamp;temperature;humidity
17452;DHT22;8843;48.838;9.324;2023-04-01T00:01:31;11.80;84.40
17452;DHT22;8843;48.838;9.324;2023-04-01T00:03:58;11.80;84.40
17452;DHT22;8843;48.838;9.324;2023-04-01T00:06:27;11.80;84.40
17452;DHT22;8843;48.838;9.324;2023-04-01T00:08:55;11.70;85.00
17452;DHT22;8843;48.838;9.324;2023-04-01T00:11:22;11.80;84.40
17452;DHT22;8843;48.838;9.324;2023-04-01T00:13:51;11.80;84.70
17452;DHT22;8843;48.838;9.324;2023-04-01T00:16:17;11.70;84.30
17452;DHT22;8843;48.838;9.324;2023-04-01T00:18:45;11.70;85.00
17452;DHT22;8843;48.838;9.324;2023-04-01T00:21:12;11.80;85.10
17452;DHT22;8843;48.838;9.324;2023-04-01T00:23:39;11.70;85.10
17452;DHT22;8843;48.838;9.324;2023-04-01T00:26:06;11.70;84.50
17452;DHT22;8843;48.838;9.324;2023-04-01T00:28:34;11.80;85.00
17452;DHT22;8843;48.838;9.324;2023-04-01T00:31:05;11.70;84.80
17452;DHT22;8843;48.838;9.324;2023-04-01T00:33:32;11.70;84.50
17452;DHT22;8843;48.838;9.324;2023-04-01T00:36:06;11.70;84.90
17452;DHT22;8843;48.838;9.324;2023-04-01T00:38:33;11.80;85.40
17452;DHT22;8843;48.838;9.324;2023-04-01T00:41:00;11.80;85.20
17452;DHT22;8843;48.838;9.324;2023-04-01T00:43:27;11.80;84.70
17452;DHT22;8843;48.838;9.324;2023-04-01T00:45:54;11.70;84.60
17452;DHT22;8843;48.838;9.324;2023-04-01T00:48:24;11.70;85.40
17452;DHT22;8843;48.838;9.324;2023-04-01T00:50:55;11.70;84.60
17452;DHT22;8843;48.838;9.324;2023-04-01T00:53:23;11.70;85.00
17452;DHT22;8843;48.838;9.324;2023-04-01T00:55:55;11.80;84.90
17452;DHT22;8843;48.838;9.324;2023-04-01T00:58:24;11.70;84.50
17452;DHT22;8843;48.838;9.324;2023-04-01T01:00:52;11.70;85.30
17452;DHT22;8843;48.838;9.324;2023-04-01T01:03:20;11.70;85.40
17452;DHT22;8843;48.838;9.324;2023-04-01T01:06:04;11.80;85.10
17452;DHT22;8843;48.838;9.324;2023-04-01T01:08:42;11.80;85.20
17452;DHT22;8843;48.838;9.324;2023-04-01T01:11:11;11.70;85.20
17452;DHT22;8843;48.838;9.324;2023-04-01T01:13:43;11.70;85.10
17452;DHT22;8843;48.838;9.324;2023-04-01T01:16:19;11.70;84.60
17452;DHT22;8843;48.838;9.324;2023-04-01T01:18:53;11.70;85.10
17452;DHT22;8843;48.838;9.324;2023-04-01T01:21:46;11.70;84.50
17452;DHT22;8843;48.838;9.324;2023-04-01T01:24:28;11.70;84.90
17452;DHT22;8843;48.838;9.324;2023-04-01T01:27:02;11.70;85.70
17452;DHT22;8843;48.838;9.324;2023-04-01T01:30:01;11.70;85.20
17452;DHT22;8843;48.838;9.324;2023-04-01T01:32:52;11.70;85.30
17452;DHT22;8843;48.838;9.324;2023-04-01T01:35:26;11.70;85.70
17452;DHT22;8843;48.838;9.324;2023-04-01T01:37:56;11.70;84.70
17452;DHT22;8843;48.838;9.324;2023-04-01T01:40:26;11.70;85.00
17452;DHT22;8843;48.838;9.324;2023-04-01T01:42:57;11.70;84.60
17452;DHT22;8843;48.838;9.324;2023-04-01T01:45:26;11.60;84.70
17452;DHT22;8843;48.838;9.324;2023-04-01T01:47:55;11.60;84.70
17452;DHT22;8843;48.838;9.324;2023-04-01T01:50:26;11.60;85.60
17452;DHT22;8843;48.838;9.324;2023-04-01T01:53:00;11.60;84.50
17452;DHT22;8843;48.838;9.324;2023-04-01T01:55:30;11.60;85.30
17452;DHT22;8843;48.838;9.324;2023-04-01T01:57:59;11.60;85.70
17452;DHT22;8843;48.838;9.324;2023-04-01T02:00:27;11.60;85.50
17452;DHT22;8843;48.838;9.324;2023-04-01T02:02:56;11.60;85.50
17452;DHT22;8843;48.838;9.324;2023-04-01T02:05:26;11.60;85.90
17452;DHT22;8843;48.838;9.324;2023-04-01T02:08:00;11.60;85.50
17452;DHT22;8843;48.838;9.324;2023-04-01T02:10:29;11.50;85.60
17452;DHT22;8843;48.838;9.324;2023-04-01T02:13:01;11.60;85.50
17452;DHT22;8843;48.838;9.324;2023-04-01T02:15:31;11.60;85.60
17452;DHT22;8843;48.838;9.324;2023-04-01T02:18:01;11.50;85.80
17452;DHT22;8843;48.838;9.324;2023-04-01T02:20:30;11.60;86.50
17452;DHT22;8843;48.838;9.324;2023-04-01T02:22:58;11.50;85.60
17452;DHT22;8843;48.838;9.324;2023-04-01T02:25:29;11.60;86.10
17452;DHT22;8843;48.838;9.324;2023-04-01T02:27:58;11.60;86.20
17452;DHT22;8843;48.838;9.324;2023-04-01T02:30:27;11.60;86.40
17452;DHT22;8843;48.838;9.324;2023-04-01T02:32:55;11.60;86.00
17452;DHT22;8843;48.838;9.324;2023-04-01T02:35:23;11.60;86.30
17452;DHT22;8843;48.838;9.324;2023-04-01T02:37:55;11.50;85.40
17452;DHT22;8843;48.838;9.324;2023-04-01T02:40:22;11.60;86.00
17452;DHT22;8843;48.838;9.324;2023-04-01T02:42:49;11.50;86.20
17452;DHT22;8843;48.838;9.324;2023-04-01T02:45:17;11.50;86.10
17452;DHT22;8843;48.838;9.324;2023-04-01T02:47:43;11.50;85.80
17452;DHT22;8843;48.838;9.324;2023-04-01T02:50:10;11.50;86.20
17452;DHT22;8843;48.838;9.324;2023-04-01T02:52:37;11.50;86.10
17452;DHT22;8843;48.838;9.324;2023-04-01T02:55:06;11.50;85.60
17452;DHT22;8843;48.838;9.324;2023-04-01T02:57:33;11.50;86.00
17452;DHT22;8843;48.838;9.324;2023-04-01T03:00:00;11.50;86.10
17452;DHT22;8843;48.838;9.324;2023-04-01T03:02:27;11.50;86.00
17452;DHT22;8843;48.838;9.324;2023-04-01T03:04:54;11.50;85.50
17452;DHT22;8843;48.838;9.324;2023-04-01T03:07:21;11.50;85.90
17452;DHT22;8843;48.838;9.324;2023-04-01T03:09:48;11.40;85.60
17452;DHT22;8843;48.838;9.324;2023-04-01T03:12:16;11.50;85.40
17452;DHT22;8843;48.838;9.324;2023-04-01T03:14:43;11.40;85.00
17452;DHT22;8843;48.838;9.324;2023-04-01T03:17:10;11.40;85.10
17452;DHT22;8843;48.838;9.324;2023-04-01T03:19:37;11.40;86.00
17452;DHT22;8843;48.838;9.324;2023-04-01T03:22:03;11.40;85.20
17452;DHT22;8843;48.838;9.324;2023-04-01T03:24:30;11.40;85.10
17452;DHT22;8843;48.838;9.324;2023-04-01T03:26:57;11.50;86.50
17452;DHT22;8843;48.838;9.324;2023-04-01T03:29:25;11.40;86.80
17452;DHT22;8843;48.838;9.324;2023-04-01T03:31:52;11.40;85.60
17452;DHT22;8843;48.838;9.324;2023-04-01T03:34:19;11.40;85.90
17452;DHT22;8843;48.838;9.324;2023-04-01T03:36:46;11.40;85.70
17452;DHT22;8843;48.838;9.324;2023-04-01T03:39:13;11.30;84.80
17452;DHT22;8843;48.838;9.324;2023-04-01T03:41:44;11.40;86.20
17452;DHT22;8843;48.838;9.324;2023-04-01T03:44:11;11.40;85.90
17452;DHT22;8843;48.838;9.324;2023-04-01T03:46:39;11.40;85.70
17452;DHT22;8843;48.838;9.324;2023-04-01T03:49:07;11.50;86.00
17452;DHT22;8843;48.838;9.324;2023-04-01T03:51:37;11.40;85.60
17452;DHT22;8843;48.838;9.324;2023-04-01T03:54:04;11.40;86.70
17452;DHT22;8843;48.838;9.324;2023-04-01T03:56:31;11.40;85.90
17452;DHT22;8843;48.838;9.324;2023-04-01T03:58:58;11.40;86.20
17452;DHT22;8843;48.838;9.324;2023-04-01T04:01:25;11.40;86.50
17452;DHT22;8843;48.838;9.324;2023-04-01T04:03:53;11.30;86.10
17452;DHT22;8843;48.838;9.324;2023-04-01T04:06:21;11.40;85.40
17452;DHT22;8843;48.838;9.324;2023-04-01T04:08:47;11.30;85.40
17452;DHT22;8843;48.838;9.324;2023-04-01T04:11:14;11.30;85.40
17452;DHT22;8843;48.838;9.324;2023-04-01T04:13:42;11.30;85.60
17452;DHT22;8843;48.838;9.324;2023-04-01T04:16:09;11.30;85.80
17452;DHT22;8843;48.838;9.324;2023-04-01T04:18:36;11.30;85.50
17452;DHT22;8843;48.838;9.324;2023-04-01T04:21:05;11.30;86.00
17452;DHT22;8843;48.838;9.324;2023-04-01T04:23:32;11.40;85.20
17452;DHT22;8843;48.838;9.324;2023-04-01T04:26:00;11.30;84.80
17452;DHT22;8843;48.838;9.324;2023-04-01T04:28:29;11.30;86.40
17452;DHT22;8843;48.838;9.324;2023-04-01T04:30:56;11.30;85.00
17452;DHT22;8843;48.838;9.324;2023-04-01T04:33:23;11.30;85.30
17452;DHT22;8843;48.838;9.324;2023-04-01T04:35:51;11.30;84.90
17452;DHT22;8843;48.838;9.324;2023-04-01T04:38:19;11.30;85.30
17452;DHT22;8843;48.838;9.324;2023-04-01T04:40:46;11.30;85.80
17452;DHT22;8843;48.838;9.324;2023-04-01T04:43:15;11.30;84.50
17452;DHT22;8843;48.838;9.324;2023-04-01T04:45:43;11.30;84.60
17452;DHT22;8843;48.838;9.324;2023-04-01T04:48:11;11.30;84.80
17452;DHT22;8843;48.838;9.324;2023-04-01T04:50:42;11.30;85.30
17452;DHT22;8843;48.838;9.324;2023-04-01T04:53:09;11.30;84.30
17452;DHT22;8843;48.838;9.324;2023-04-01T04:55:38;11.20;85.00
17452;DHT22;8843;48.838;9.324;2023-04-01T04:58:08;11.20;84.90
17452;DHT22;8843;48.838;9.324;2023-04-01T05:00:35;11.30;85.20
17452;DHT22;8843;48.838;9.324;2023-04-01T05:03:02;11.30;85.80
17452;DHT22;8843;48.838;9.324;2023-04-01T05:05:29;11.30;86.00
17452;DHT22;8843;48.838;9.324;2023-04-01T05:07:56;11.30;83.80
17452;DHT22;8843;48.838;9.324;2023-04-01T05:10:23;11.30;85.00
17452;DHT22;8843;48.838;9.324;2023-04-01T05:12:52;11.30;84.60
17452;DHT22;8843;48.838;9.324;2023-04-01T05:15:18;11.20;85.20
17452;DHT22;8843;48.838;9.324;2023-04-01T05:17:45;11.30;85.80
17452;DHT22;8843;48.838;9.324;2023-04-01T05:20:13;11.30;84.60
17452;DHT22;8843;48.838;9.324;2023-04-01T05:22:40;11.20;85.00
17452;DHT22;8843;48.838;9.324;2023-04-01T05:25:07;11.30;84.60
17452;DHT22;8843;48.838;9.324;2023-04-01T05:27:34;11.30;84.80
17452;DHT22;8843;48.838;9.324;2023-04-01T05:30:03;11.30;84.30
17452;DHT22;8843;48.838;9.324;2023-04-01T05:32:31;11.30;85.70
17452;DHT22;8843;48.838;9.324;2023-04-01T05:34:58;11.20;84.10
17452;DHT22;8843;48.838;9.324;2023-04-01T05:37:25;11.20;84.40
17452;DHT22;8843;48.838;9.324;2023-04-01T05:39:51;11.30;85.80
17452;DHT22;8843;48.838;9.324;2023-04-01T05:42:18;11.20;85.10
17452;DHT22;8843;48.838;9.324;2023-04-01T05:44:45;11.30;85.90
17452;DHT22;8843;48.838;9.324;2023-04-01T05:47:13;11.30;85.70
17452;DHT22;8843;48.838;9.324;2023-04-01T05:49:40;11.20;84.00
17452;DHT22;8843;48.838;9.324;2023-04-01T05:52:07;11.10;85.40
17452;DHT22;8843;48.838;9.324;2023-04-01T05:54:34;11.40;84.20
17452;DHT22;8843;48.838;9.324;2023-04-01T05:57:03;11.40;85.90
17452;DHT22;8843;48.838;9.324;2023-04-01T05:59:31;11.30;85.30
17452;DHT22;8843;48.838;9.324;2023-04-01T06:02:01;11.30;85.20
17452;DHT22;8843;48.838;9.324;2023-04-01T06:04:37;11.30;85.40
17452;DHT22;8843;48.838;9.324;2023-04-01T06:07:10;11.20;84.90
17452;DHT22;8843;48.838;9.324;2023-04-01T06:09:37;11.10;84.00
17452;DHT22;8843;48.838;9.324;2023-04-01T06:12:21;11.10;85.40
17452;DHT22;8843;48.838;9.324;2023-04-01T06:15:02;11.10;84.50
17452;DHT22;8843;48.838;9.324;2023-04-01T06:17:38;11.40;87.10
17452;DHT22;8843;48.838;9.324;2023-04-01T06:20:13;11.30;84.00
17452;DHT22;8843;48.838;9.324;2023-04-01T06:26:08;11.30;85.60
17452;DHT22;8843;48.838;9.324;2023-04-01T06:28:45;11.20;84.50
17452;DHT22;8843;48.838;9.324;2023-04-01T06:31:29;11.20;84.60
17452;DHT22;8843;48.838;9.324;2023-04-01T06:34:14;11.20;86.00
17452;DHT22;8843;48.838;9.324;2023-04-01T06:37:07;11.20;85.80
17452;DHT22;8843;48.838;9.324;2023-04-01T06:39:53;11.20;84.60
17452;DHT22;8843;48.838;9.324;2023-04-01T06:42:35;11.20;85.10
17452;DHT22;8843;48.838;9.324;2023-04-01T06:45:14;11.20;85.40
17452;DHT22;8843;48.838;9.324;2023-04-01T06:47:53;11.20;85.10
17452;DHT22;8843;48.838;9.324;2023-04-01T06:50:24;11.10;84.50
17452;DHT22;8843;48.838;9.324;2023-04-01T06:53:00;11.20;85.10
17452;DHT22;8843;48.838;9.324;2023-04-01T06:55:36;11.20;85.80
17452;DHT22;8843;48.838;9.324;2023-04-01T06:58:11;11.10;83.30
17452;DHT22;8843;48.838;9.324;2023-04-01T07:00:43;11.00;85.30
17452;DHT22;8843;48.838;9.324;2023-04-01T07:03:18;11.10;84.60
17452;DHT22;8843;48.838;9.324;2023-04-01T07:05:47;11.10;84.40
17452;DHT22;8843;48.838;9.324;2023-04-01T07:08:18;11.10;84.10
17452;DHT22;8843;48.838;9.324;2023-04-01T07:10:50;11.10;84.50
17452;DHT22;8843;48.838;9.324;2023-04-01T07:13:22;11.10;84.00
17452;DHT22;8843;48.838;9.324;2023-04-01T07:15:59;11.10;84.60
17452;DHT22;8843;48.838;9.324;2023-04-01T07:18:32;11.10;84.50
17452;DHT22;8843;48.838;9.324;2023-04-01T07:21:01;11.00;84.10
17452;DHT22;8843;48.838;9.324;2023-04-01T07:23:33;11.00;84.30
17452;DHT22;8843;48.838;9.324;2023-04-01T07:26:09;11.00;83.80
17452;DHT22;8843;48.838;9.324;2023-04-01T07:28:40;11.10;84.10
17452;DHT22;8843;48.838;9.324;2023-04-01T07:31:39;11.10;84.60
17452;DHT22;8843;48.838;9.324;2023-04-01T07:34:15;11.10;84.50
17452;DHT22;8843;48.838;9.324;2023-04-01T07:36:46;11.20;84.50
17452;DHT22;8843;48.838;9.324;2023-04-01T07:39:27;11.00;82.80
17452;DHT22;8843;48.838;9.324;2023-04-01T07:42:00;11.10;84.40
17452;DHT22;8843;48.838;9.324;2023-04-01T07:44:35;11.10;83.70
17452;DHT22;8843;48.838;9.324;2023-04-01T07:47:19;11.10;84.20
17452;DHT22;8843;48.838;9.324;2023-04-01T07:49:57;11.10;84.30
17452;DHT22;8843;48.838;9.324;2023-04-01T07:52:33;11.10;83.90
17452;DHT22;8843;48.838;9.324;2023-04-01T07:55:09;11.10;84.30
17452;DHT22;8843;48.838;9.324;2023-04-01T07:57:46;11.20;84.60
17452;DHT22;8843;48.838;9.324;2023-04-01T08:00:20;11.30;89.40
17452;DHT22;8843;48.838;9.324;2023-04-01T08:03:09;12.00;87.10
17452;DHT22;8843;48.838;9.324;2023-04-01T08:05:46;12.40;83.50
17452;DHT22;8843;48.838;9.324;2023-04-01T08:08:20;12.00;81.80
17452;DHT22;8843;48.838;9.324;2023-04-01T08:10:56;11.70;82.20
17452;DHT22;8843;48.838;9.324;2023-04-01T08:13:32;11.50;82.70
17452;DHT22;8843;48.838;9.324;2023-04-01T08:16:08;11.30;83.20
17452;DHT22;8843;48.838;9.324;2023-04-01T08:18:41;11.20;84.40
17452;DHT22;8843;48.838;9.324;2023-04-01T08:21:14;11.30;82.50
17452;DHT22;8843;48.838;9.324;2023-04-01T08:23:48;11.50;85.40
17452;DHT22;8843;48.838;9.324;2023-04-01T08:26:28;11.80;86.40
17452;DHT22;8843;48.838;9.324;2023-04-01T08:29:01;11.80;82.90
17452;DHT22;8843;48.838;9.324;2023-04-01T08:31:39;11.60;81.00
17452;DHT22;8843;48.838;9.324;2023-04-01T08:34:12;11.40;84.90
17452;DHT22;8843;48.838;9.324;2023-04-01T08:36:44;11.30;84.20
17452;DHT22;8843;48.838;9.324;2023-04-01T08:39:17;11.30;84.30
17452;DHT22;8843;48.838;9.324;2023-04-01T08:42:13;11.20;82.90
17452;DHT22;8843;48.838;9.324;2023-04-01T08:45:05;11.10;84.10
17452;DHT22;8843;48.838;9.324;2023-04-01T08:47:46;11.10;84.30
17452;DHT22;8843;48.838;9.324;2023-04-01T08:53:23;11.10;85.70
17452;DHT22;8843;48.838;9.324;2023-04-01T08:56:03;11.40;86.80
17452;DHT22;8843;48.838;9.324;2023-04-01T08:58:52;11.50;86.60
17452;DHT22;8843;48.838;9.324;2023-04-01T09:01:44;11.60;86.30
17452;DHT22;8843;48.838;9.324;2023-04-01T09:04:29;11.30;86.80
17452;DHT22;8843;48.838;9.324;2023-04-01T09:07:07;11.30;87.70
17452;DHT22;8843;48.838;9.324;2023-04-01T09:09:52;11.30;87.30
17452;DHT22;8843;48.838;9.324;2023-04-01T09:12:49;11.30;86.70
17452;DHT22;8843;48.838;9.324;2023-04-01T09:15:37;11.20;87.20
17452;DHT22;8843;48.838;9.324;2023-04-01T09:18:47;11.20;87.70
17452;DHT22;8843;48.838;9.324;2023-04-01T09:21:45;11.20;86.70
17452;DHT22;8843;48.838;9.324;2023-04-01T09:27:16;11.20;87.20
17452;DHT22;8843;48.838;9.324;2023-04-01T09:30:06;11.20;87.30
17452;DHT22;8843;48.838;9.324;2023-04-01T09:35:41;11.20;86.80
17452;DHT22;8843;48.838;9.324;2023-04-01T09:38:21;11.20;87.40
17452;DHT22;8843;48.838;9.324;2023-04-01T09:40:55;11.20;87.20
17452;DHT22;8843;48.838;9.324;2023-04-01T09:43:43;11.20;87.20
17452;DHT22;8843;48.838;9.324;2023-04-01T09:46:23;11.20;87.00
17452;DHT22;8843;48.838;9.324;2023-04-01T09:52:10;11.20;86.50
17452;DHT22;8843;48.838;9.324;2023-04-01T09:55:00;11.20;87.20
17452;DHT22;8843;48.838;9.324;2023-04-01T10:01:01;11.20;86.60
17452;DHT22;8843;48.838;9.324;2023-04-01T10:07:22;11.20;86.80
17452;DHT22;8843;48.838;9.324;2023-04-01T10:10:39;11.10;86.70
17452;DHT22;8843;48.838;9.324;2023-04-01T10:13:48;11.20;87.10
17452;DHT22;8843;48.838;9.324;2023-04-01T10:16:32;11.10;86.70
17452;DHT22;8843;48.838;9.324;2023-04-01T10:19:14;11.10;86.40
17452;DHT22;8843;48.838;9.324;2023-04-01T10:22:17;11.10;86.40
17452;DHT22;8843;48.838;9.324;2023-04-01T10:25:16;11.10;86.10
17452;DHT22;8843;48.838;9.324;2023-04-01T10:28:01;11.10;86.00
17452;DHT22;8843;48.838;9.324;2023-04-01T10:33:58;11.10;86.00
17452;DHT22;8843;48.838;9.324;2023-04-01T10:36:51;11.10;85.50
17452;DHT22;8843;48.838;9.324;2023-04-01T10:42:54;11.10;85.50
17452;DHT22;8843;48.838;9.324;2023-04-01T10:51:37;11.10;85.60
17452;DHT22;8843;48.838;9.324;2023-04-01T10:54:43;11.10;85.50
17452;DHT22;8843;48.838;9.324;2023-04-01T10:57:31;11.10;85.60
17452;DHT22;8843;48.838;9.324;2023-04-01T11:00:38;11.20;86.00
17452;DHT22;8843;48.838;9.324;2023-04-01T11:12:38;11.10;87.10
17452;DHT22;8843;48.838;9.324;2023-04-01T11:15:26;11.10;86.40
17452;DHT22;8843;48.838;9.324;2023-04-01T11:21:43;11.20;86.80
17452;DHT22;8843;48.838;9.324;2023-04-01T11:24:47;11.20;86.50
17452;DHT22;8843;48.838;9.324;2023-04-01T11:27:28;11.10;86.20
17452;DHT22;8843;48.838;9.324;2023-04-01T11:30:14;11.10;86.10
17452;DHT22;8843;48.838;9.324;2023-04-01T11:33:03;11.20;86.90
17452;DHT22;8843;48.838;9.324;2023-04-01T11:35:44;11.20;85.60
17452;DHT22;8843;48.838;9.324;2023-04-01T11:38:24;11.40;90.60
17452;DHT22;8843;48.838;9.324;2023-04-01T11:40:58;11.80;82.40
17452;DHT22;8843;48.838;9.324;2023-04-01T11:43:32;11.50;83.80
17452;DHT22;8843;48.838;9.324;2023-04-01T11:46:07;11.40;84.30
17452;DHT22;8843;48.838;9.324;2023-04-01T11:48:44;11.30;84.00
17452;DHT22;8843;48.838;9.324;2023-04-01T11:54:22;11.20;84.90
17452;DHT22;8843;48.838;9.324;2023-04-01T11:57:05;11.20;84.40
17452;DHT22;8843;48.838;9.324;2023-04-01T11:59:51;11.20;84.10
17452;DHT22;8843;48.838;9.324;2023-04-01T12:02:28;11.20;84.50
17452;DHT22;8843;48.838;9.324;2023-04-01T12:05:21;11.20;84.70
17452;DHT22;8843;48.838;9.324;2023-04-01T12:07:58;11.20;84.90
17452;DHT22;8843;48.838;9.324;2023-04-01T12:10:37;11.20;84.40
17452;DHT22;8843;48.838;9.324;2023-04-01T12:13:12;11.20;84.90
17452;DHT22;8843;48.838;9.324;2023-04-01T12:15:54;11.20;84.80
17452;DHT22;8843;48.838;9.324;2023-04-01T12:18:31;11.20;84.90
17452;DHT22;8843;48.838;9.324;2023-04-01T12:21:12;11.20;85.20
17452;DHT22;8843;48.838;9.324;2023-04-01T12:24:12;11.20;85.30
17452;DHT22;8843;48.838;9.324;2023-04-01T12:27:03;11.20;85.60
17452;DHT22;8843;48.838;9.324;2023-04-01T12:29:48;11.20;85.90
17452;DHT22;8843;48.838;9.324;2023-04-01T12:32:24;11.20;85.70
17452;DHT22;8843;48.838;9.324;2023-04-01T12:37:54;11.70;91.70
17452;DHT22;8843;48.838;9.324;2023-04-01T12:40:36;11.90;86.40
17452;DHT22;8843;48.838;9.324;2023-04-01T12:43:17;11.60;86.20
17452;DHT22;8843;48.838;9.324;2023-04-01T12:45:52;11.50;86.50
17452;DHT22;8843;48.838;9.324;2023-04-01T13:06:27;11.30;85.80
17452;DHT22;8843;48.838;9.324;2023-04-01T13:09:07;11.30;85.30
17452;DHT22;8843;48.838;9.324;2023-04-01T13:11:51;11.20;85.40
17452;DHT22;8843;48.838;9.324;2023-04-01T13:14:35;11.30;85.20
17452;DHT22;8843;48.838;9.324;2023-04-01T13:17:14;11.30;85.10
17452;DHT22;8843;48.838;9.324;2023-04-01T13:19:49;11.20;85.30
17452;DHT22;8843;48.838;9.324;2023-04-01T13:22:22;11.20;85.30
17452;DHT22;8843;48.838;9.324;2023-04-01T13:24:52;11.30;85.90
17452;DHT22;8843;48.838;9.324;2023-04-01T13:27:31;11.30;85.30
17452;DHT22;8843;48.838;9.324;2023-04-01T13:30:16;11.20;85.20
17452;DHT22;8843;48.838;9.324;2023-04-01T13:32:49;11.30;85.60
17452;DHT22;8843;48.838;9.324;2023-04-01T13:35:23;11.20;85.70
17452;DHT22;8843;48.838;9.324;2023-04-01T13:38:01;11.20;84.60
17452;DHT22;8843;48.838;9.324;2023-04-01T13:40:51;11.20;84.90
17452;DHT22;8843;48.838;9.324;2023-04-01T13:43:23;11.20;86.10
17452;DHT22;8843;48.838;9.324;2023-04-01T13:49:17;11.20;84.50
17452;DHT22;8843;48.838;9.324;2023-04-01T13:55:25;11.20;85.10
17452;DHT22;8843;48.838;9.324;2023-04-01T13:58:12;11.20;84.40
17452;DHT22;8843;48.838;9.324;2023-04-01T14:00:54;11.20;85.10
17452;DHT22;8843;48.838;9.324;2023-04-01T14:03:32;11.20;84.40
17452;DHT22;8843;48.838;9.324;2023-04-01T14:06:19;11.20;84.00
17452;DHT22;8843;48.838;9.324;2023-04-01T14:09:09;11.20;84.60
17452;DHT22;8843;48.838;9.324;2023-04-01T14:11:45;11.20;84.60
17452;DHT22;8843;48.838;9.324;2023-04-01T14:14:24;11.20;85.10
17452;DHT22;8843;48.838;9.324;2023-04-01T14:17:10;11.20;84.70
17452;DHT22;8843;48.838;9.324;2023-04-01T14:19:58;11.20;85.00
17452;DHT22;8843;48.838;9.324;2023-04-01T14:22:32;11.20;85.40
17452;DHT22;8843;48.838;9.324;2023-04-01T14:25:33;11.20;84.90
17452;DHT22;8843;48.838;9.324;2023-04-01T14:28:09;11.20;84.40
17452;DHT22;8843;48.838;9.324;2023-04-01T14:30:48;11.10;84.10
17452;DHT22;8843;48.838;9.324;2023-04-01T14:33:30;11.10;84.00
17452;DHT22;8843;48.838;9.324;2023-04-01T14:36:24;11.20;84.50
17452;DHT22;8843;48.838;9.324;2023-04-01T14:39:00;11.10;84.30
17452;DHT22;8843;48.838;9.324;2023-04-01T14:41:42;11.10;84.30
17452;DHT22;8843;48.838;9.324;2023-04-01T14:44:38;11.10;84.70
17452;DHT22;8843;48.838;9.324;2023-04-01T14:50:08;11.10;85.30
17452;DHT22;8843;48.838;9.324;2023-04-01T14:52:38;11.10;85.90
17452;DHT22;8843;48.838;9.324;2023-04-01T14:55:31;11.10;86.00
17452;DHT22;8843;48.838;9.324;2023-04-01T14:58:11;11.10;86.00
17452;DHT22;8843;48.838;9.324;2023-04-01T15:00:50;11.10;86.40
17452;DHT22;8843;48.838;9.324;2023-04-01T15:03:25;11.10;86.00
17452;DHT22;8843;48.838;9.324;2023-04-01T15:06:11;11.10;86.00
17452;DHT22;8843;48.838;9.324;2023-04-01T15:08:46;11.10;86.20
17452;DHT22;8843;48.838;9.324;2023-04-01T15:11:25;11.10;86.20
17452;DHT22;8843;48.838;9.324;2023-04-01T15:14:06;11.10;86.20
17452;DHT22;8843;48.838;9.324;2023-04-01T15:16:44;11.10;86.30
17452;DHT22;8843;48.838;9.324;2023-04-01T15:19:19;11.10;86.20
17452;DHT22;8843;48.838;9.324;2023-04-01T15:22:15;11.10;86.00
17452;DHT22;8843;48.838;9.324;2023-04-01T15:24:51;11.10;86.10
17452;DHT22;8843;48.838;9.324;2023-04-01T15:27:34;11.10;86.80
17452;DHT22;8843;48.838;9.324;2023-04-01T15:30:21;11.10;86.20
17452;DHT22;8843;48.838;9.324;2023-04-01T15:33:03;11.10;85.00
17452;DHT22;8843;48.838;9.324;2023-04-01T15:35:39;11.40;90.60
17452;DHT22;8843;48.838;9.324;2023-04-01T15:38:17;11.60;87.00
17452;DHT22;8843;48.838;9.324;2023-04-01T15:40:52;11.50;85.50
17452;DHT22;8843;48.838;9.324;2023-04-01T15:43:27;11.30;85.20
17452;DHT22;8843;48.838;9.324;2023-04-01T15:46:20;11.30;85.80
17452;DHT22;8843;48.838;9.324;2023-04-01T15:49:01;11.20;85.30
17452;DHT22;8843;48.838;9.324;2023-04-01T15:51:47;11.20;85.70
17452;DHT22;8843;48.838;9.324;2023-04-01T15:54:25;11.20;88.30
17452;DHT22;8843;48.838;9.324;2023-04-01T15:57:09;11.30;85.50
17452;DHT22;8843;48.838;9.324;2023-04-01T15:59:51;11.20;85.50
17452;DHT22;8843;48.838;9.324;2023-04-01T16:02:27;11.60;90.70
17452;DHT22;8843;48.838;9.324;2023-04-01T16:04:59;11.70;84.30
17452;DHT22;8843;48.838;9.324;2023-04-01T16:07:55;11.70;85.10
17452;DHT22;8843;48.838;9.324;2023-04-01T16:10:35;11.50;84.60
17452;DHT22;8843;48.838;9.324;2023-04-01T16:13:18;11.40;84.90
17452;DHT22;8843;48.838;9.324;2023-04-01T16:15:55;11.30;84.80
17452;DHT22;8843;48.838;9.324;2023-04-01T16:18:37;11.20;85.90
17452;DHT22;8843;48.838;9.324;2023-04-01T16:21:10;11.20;85.30
17452;DHT22;8843;48.838;9.324;2023-04-01T16:23:42;11.40;85.20
17452;DHT22;8843;48.838;9.324;2023-04-01T16:26:18;11.30;85.20
17452;DHT22;8843;48.838;9.324;2023-04-01T16:28:53;11.20;84.90
17452;DHT22;8843;48.838;9.324;2023-04-01T16:31:32;11.20;85.20
17452;DHT22;8843;48.838;9.324;2023-04-01T16:34:04;11.20;85.30
17452;DHT22;8843;48.838;9.324;2023-04-01T16:36:37;11.10;83.90
17452;DHT22;8843;48.838;9.324;2023-04-01T16:39:27;11.20;86.60
17452;DHT22;8843;48.838;9.324;2023-04-01T16:42:24;11.30;84.90
17452;DHT22;8843;48.838;9.324;2023-04-01T16:44:56;11.20;84.70
17452;DHT22;8843;48.838;9.324;2023-04-01T16:47:30;11.20;84.60
17452;DHT22;8843;48.838;9.324;2023-04-01T16:50:00;11.20;84.40
17452;DHT22;8843;48.838;9.324;2023-04-01T16:52:53;11.10;84.50
17452;DHT22;8843;48.838;9.324;2023-04-01T16:55:35;11.10;85.10
17452;DHT22;8843;48.838;9.324;2023-04-01T16:58:10;11.10;85.00
17452;DHT22;8843;48.838;9.324;2023-04-01T17:00:47;11.40;86.80
17452;DHT22;8843;48.838;9.324;2023-04-01T17:03:17;11.30;84.90
17452;DHT22;8843;48.838;9.324;2023-04-01T17:06:02;11.30;85.30
17452;DHT22;8843;48.838;9.324;2023-04-01T17:11:23;11.20;85.80
17452;DHT22;8843;48.838;9.324;2023-04-01T17:14:02;11.10;85.70
17452;DHT22;8843;48.838;9.324;2023-04-01T17:16:55;11.10;85.90
17452;DHT22;8843;48.838;9.324;2023-04-01T17:19:34;11.10;85.70
17452;DHT22;8843;48.838;9.324;2023-04-01T17:22:13;11.10;86.20
17452;DHT22;8843;48.838;9.324;2023-04-01T17:24:55;11.10;86.40
17452;DHT22;8843;48.838;9.324;2023-04-01T17:27:39;11.10;86.10
17452;DHT22;8843;48.838;9.324;2023-04-01T17:30:28;11.10;86.10
17452;DHT22;8843;48.838;9.324;2023-04-01T17:36:04;11.10;85.60
17452;DHT22;8843;48.838;9.324;2023-04-01T17:39:05;11.10;86.10
17452;DHT22;8843;48.838;9.324;2023-04-01T17:41:42;11.50;90.90
17452;DHT22;8843;48.838;9.324;2023-04-01T17:44:29;11.50;86.30
17452;DHT22;8843;48.838;9.324;2023-04-01T17:49:54;11.40;85.90
17452;DHT22;8843;48.838;9.324;2023-04-01T17:52:27;11.30;85.30
17452;DHT22;8843;48.838;9.324;2023-04-01T17:55:03;11.20;86.30
17452;DHT22;8843;48.838;9.324;2023-04-01T17:57:42;11.20;86.80
17452;DHT22;8843;48.838;9.324;2023-04-01T18:00:22;11.10;85.90
17452;DHT22;8843;48.838;9.324;2023-04-01T18:03:00;11.10;86.40
17452;DHT22;8843;48.838;9.324;2023-04-01T18:05:51;11.10;86.00
17452;DHT22;8843;48.838;9.324;2023-04-01T18:08:32;11.10;86.50
17452;DHT22;8843;48.838;9.324;2023-04-01T18:11:10;11.10;86.20
17452;DHT22;8843;48.838;9.324;2023-04-01T18:14:00;11.10;86.90